sensor_id;sensor_type;location;lat;lon;timestamp;P1;durP1;ratioP1;P2;durP2;ratioP2
7575;SDS011;3829;50.798;4.358;2024-03-25T00:00:16;17.03;;;7.80;;
7575;SDS011;3829;50.798;4.358;2024-03-25T00:02:41;14.43;;;7.17;;
7575;SDS011;3829;50.798;4.358;2024-03-25T00:05:07;11.73;;;6.67;;
7575;SDS011;3829;50.798;4.358;2024-03-25T00:07:36;13.10;;;7.63;;
7575;SDS011;3829;50.798;4.358;2024-03-25T00:10:02;16.50;;;7.57;;
7575;SDS011;3829;50.798;4.358;2024-03-25T00:12:28;13.13;;;6.77;;
7575;SDS011;3829;50.798;4.358;2024-03-25T00:14:54;13.00;;;7.07;;
7575;SDS011;3829;50.798;4.358;2024-03-25T00:17:19;11.10;;;6.13;;
7575;SDS011;3829;50.798;4.358;2024-03-25T00:19:46;14.73;;;6.90;;
7575;SDS011;3829;50.798;4.358;2024-03-25T00:22:16;13.33;;;6.90;;
7575;SDS011;3829;50.798;4.358;2024-03-25T00:24:42;16.97;;;7.57;;
7575;SDS011;3829;50.798;4.358;2024-03-25T00:27:07;10.03;;;6.83;;
7575;SDS011;3829;50.798;4.358;2024-03-25T00:29:33;10.97;;;6.33;;
7575;SDS011;3829;50.798;4.358;2024-03-25T00:31:58;12.17;;;5.80;;
7575;SDS011;3829;50.798;4.358;2024-03-25T00:34:24;11.53;;;7.10;;
7575;SDS011;3829;50.798;4.358;2024-03-25T00:36:49;10.57;;;6.07;;
7575;SDS011;3829;50.798;4.358;2024-03-25T00:39:15;13.10;;;5.83;;
7575;SDS011;3829;50.798;4.358;2024-03-25T00:41:41;10.60;;;6.13;;
7575;SDS011;3829;50.798;4.358;2024-03-25T00:44:06;14.00;;;5.80;;
7575;SDS011;3829;50.798;4.358;2024-03-25T00:46:32;14.83;;;5.93;;
7575;SDS011;3829;50.798;4.358;2024-03-25T00:48:57;14.00;;;6.37;;
7575;SDS011;3829;50.798;4.358;2024-03-25T00:51:24;9.97;;;5.40;;
7575;SDS011;3829;50.798;4.358;2024-03-25T00:53:49;12.73;;;5.53;;
7575;SDS011;3829;50.798;4.358;2024-03-25T00:56:14;6.47;;;4.67;;
7575;SDS011;3829;50.798;4.358;2024-03-25T00:58:41;9.80;;;5.10;;
7575;SDS011;3829;50.798;4.358;2024-03-25T01:01:06;10.27;;;5.43;;
7575;SDS011;3829;50.798;4.358;2024-03-25T01:03:32;16.90;;;5.23;;
7575;SDS011;3829;50.798;4.358;2024-03-25T01:05:58;8.43;;;4.67;;
7575;SDS011;3829;50.798;4.358;2024-03-25T01:08:27;8.63;;;4.40;;
7575;SDS011;3829;50.798;4.358;2024-03-25T01:10:53;8.20;;;4.20;;
7575;SDS011;3829;50.798;4.358;2024-03-25T01:13:18;8.97;;;4.70;;
7575;SDS011;3829;50.798;4.358;2024-03-25T01:15:44;10.00;;;4.50;;
7575;SDS011;3829;50.798;4.358;2024-03-25T01:18:09;12.63;;;4.57;;
7575;SDS011;3829;50.798;4.358;2024-03-25T01:20:35;7.17;;;4.23;;
7575;SDS011;3829;50.798;4.358;2024-03-25T01:23:00;11.20;;;4.57;;
7575;SDS011;3829;50.798;4.358;2024-03-25T01:25:26;11.03;;;4.33;;
7575;SDS011;3829;50.798;4.358;2024-03-25T01:27:51;6.43;;;4.30;;
7575;SDS011;3829;50.798;4.358;2024-03-25T01:30:17;9.93;;;4.97;;
7575;SDS011;3829;50.798;4.358;2024-03-25T01:32:44;10.73;;;4.83;;
7575;SDS011;3829;50.798;4.358;2024-03-25T01:35:11;12.57;;;5.37;;
7575;SDS011;3829;50.798;4.358;2024-03-25T01:37:37;11.37;;;4.97;;
7575;SDS011;3829;50.798;4.358;2024-03-25T01:40:03;9.87;;;3.93;;
7575;SDS011;3829;50.798;4.358;2024-03-25T01:42:29;9.00;;;4.73;;
7575;SDS011;3829;50.798;4.358;2024-03-25T01:44:55;11.53;;;5.37;;
7575;SDS011;3829;50.798;4.358;2024-03-25T01:47:20;13.07;;;4.53;;
7575;SDS011;3829;50.798;4.358;2024-03-25T01:49:46;18.97;;;5.40;;
7575;SDS011;3829;50.798;4.358;2024-03-25T01:52:13;11.57;;;5.50;;
7575;SDS011;3829;50.798;4.358;2024-03-25T01:54:38;9.67;;;5.20;;
7575;SDS011;3829;50.798;4.358;2024-03-25T01:57:04;16.60;;;7.40;;
7575;SDS011;3829;50.798;4.358;2024-03-25T01:59:30;12.37;;;4.93;;
7575;SDS011;3829;50.798;4.358;2024-03-25T02:01:56;14.67;;;6.10;;
7575;SDS011;3829;50.798;4.358;2024-03-25T02:04:22;15.97;;;6.00;;
7575;SDS011;3829;50.798;4.358;2024-03-25T02:06:48;11.40;;;5.43;;
7575;SDS011;3829;50.798;4.358;2024-03-25T02:09:15;18.23;;;6.07;;
7575;SDS011;3829;50.798;4.358;2024-03-25T02:11:41;15.73;;;5.83;;
7575;SDS011;3829;50.798;4.358;2024-03-25T02:14:07;10.43;;;6.00;;
7575;SDS011;3829;50.798;4.358;2024-03-25T02:16:33;16.53;;;5.73;;
7575;SDS011;3829;50.798;4.358;2024-03-25T02:18:58;12.27;;;5.87;;
7575;SDS011;3829;50.798;4.358;2024-03-25T02:21:24;22.23;;;6.03;;
7575;SDS011;3829;50.798;4.358;2024-03-25T02:23:50;17.77;;;7.17;;
7575;SDS011;3829;50.798;4.358;2024-03-25T02:26:17;18.17;;;6.70;;
7575;SDS011;3829;50.798;4.358;2024-03-25T02:28:43;12.80;;;5.80;;
7575;SDS011;3829;50.798;4.358;2024-03-25T02:31:09;18.50;;;5.97;;
7575;SDS011;3829;50.798;4.358;2024-03-25T02:33:34;17.03;;;6.30;;
7575;SDS011;3829;50.798;4.358;2024-03-25T02:36:00;17.00;;;5.57;;
7575;SDS011;3829;50.798;4.358;2024-03-25T02:38:26;14.67;;;7.27;;
7575;SDS011;3829;50.798;4.358;2024-03-25T02:40:52;21.47;;;7.57;;
7575;SDS011;3829;50.798;4.358;2024-03-25T02:43:19;16.90;;;6.53;;
7575;SDS011;3829;50.798;4.358;2024-03-25T02:45:46;18.40;;;6.50;;
7575;SDS011;3829;50.798;4.358;2024-03-25T02:48:11;18.73;;;6.77;;
7575;SDS011;3829;50.798;4.358;2024-03-25T02:50:37;13.43;;;6.63;;
7575;SDS011;3829;50.798;4.358;2024-03-25T02:53:03;15.40;;;6.73;;
7575;SDS011;3829;50.798;4.358;2024-03-25T02:55:28;23.83;;;7.13;;
7575;SDS011;3829;50.798;4.358;2024-03-25T02:57:54;13.07;;;7.07;;
7575;SDS011;3829;50.798;4.358;2024-03-25T03:00:19;24.30;;;6.97;;
7575;SDS011;3829;50.798;4.358;2024-03-25T03:02:47;15.37;;;6.80;;
7575;SDS011;3829;50.798;4.358;2024-03-25T03:05:12;20.73;;;7.37;;
7575;SDS011;3829;50.798;4.358;2024-03-25T03:07:38;17.73;;;8.23;;
7575;SDS011;3829;50.798;4.358;2024-03-25T03:10:03;22.50;;;7.60;;
7575;SDS011;3829;50.798;4.358;2024-03-25T03:12:30;22.77;;;7.63;;
7575;SDS011;3829;50.798;4.358;2024-03-25T03:14:55;17.53;;;7.73;;
7575;SDS011;3829;50.798;4.358;2024-03-25T03:17:21;17.70;;;7.47;;
7575;SDS011;3829;50.798;4.358;2024-03-25T03:19:46;24.07;;;7.33;;
7575;SDS011;3829;50.798;4.358;2024-03-25T03:22:12;28.47;;;8.10;;
7575;SDS011;3829;50.798;4.358;2024-03-25T03:24:38;25.60;;;7.27;;
7575;SDS011;3829;50.798;4.358;2024-03-25T03:27:03;24.40;;;8.03;;
7575;SDS011;3829;50.798;4.358;2024-03-25T03:29:29;23.87;;;8.93;;
7575;SDS011;3829;50.798;4.358;2024-03-25T03:31:54;20.90;;;9.07;;
7575;SDS011;3829;50.798;4.358;2024-03-25T03:34:20;26.23;;;8.90;;
7575;SDS011;3829;50.798;4.358;2024-03-25T03:36:46;18.50;;;8.07;;
7575;SDS011;3829;50.798;4.358;2024-03-25T03:39:11;23.80;;;8.07;;
7575;SDS011;3829;50.798;4.358;2024-03-25T03:41:38;27.60;;;8.60;;
7575;SDS011;3829;50.798;4.358;2024-03-25T03:44:04;25.57;;;9.10;;
7575;SDS011;3829;50.798;4.358;2024-03-25T03:46:29;18.03;;;7.83;;
7575;SDS011;3829;50.798;4.358;2024-03-25T03:48:55;27.20;;;10.60;;
7575;SDS011;3829;50.798;4.358;2024-03-25T03:51:21;27.83;;;9.63;;
7575;SDS011;3829;50.798;4.358;2024-03-25T03:53:46;21.37;;;8.77;;
7575;SDS011;3829;50.798;4.358;2024-03-25T03:56:12;32.03;;;10.37;;
7575;SDS011;3829;50.798;4.358;2024-03-25T03:58:37;26.40;;;10.80;;
7575;SDS011;3829;50.798;4.358;2024-03-25T04:01:03;29.83;;;10.27;;
7575;SDS011;3829;50.798;4.358;2024-03-25T04:03:29;25.97;;;10.37;;
7575;SDS011;3829;50.798;4.358;2024-03-25T04:05:55;32.50;;;11.10;;
7575;SDS011;3829;50.798;4.358;2024-03-25T04:08:21;29.20;;;11.07;;
7575;SDS011;3829;50.798;4.358;2024-03-25T04:10:46;39.23;;;12.63;;
7575;SDS011;3829;50.798;4.358;2024-03-25T04:13:12;28.43;;;11.87;;
7575;SDS011;3829;50.798;4.358;2024-03-25T04:15:38;26.93;;;11.77;;
7575;SDS011;3829;50.798;4.358;2024-03-25T04:18:05;33.27;;;12.70;;
7575;SDS011;3829;50.798;4.358;2024-03-25T04:20:37;34.07;;;11.63;;
7575;SDS011;3829;50.798;4.358;2024-03-25T04:23:03;26.30;;;11.07;;
7575;SDS011;3829;50.798;4.358;2024-03-25T04:25:30;35.93;;;11.87;;
7575;SDS011;3829;50.798;4.358;2024-03-25T04:27:56;40.23;;;14.27;;
7575;SDS011;3829;50.798;4.358;2024-03-25T04:30:21;31.60;;;12.27;;
7575;SDS011;3829;50.798;4.358;2024-03-25T04:32:47;30.00;;;11.80;;
7575;SDS011;3829;50.798;4.358;2024-03-25T04:35:12;36.10;;;14.13;;
7575;SDS011;3829;50.798;4.358;2024-03-25T04:37:38;31.33;;;12.43;;
7575;SDS011;3829;50.798;4.358;2024-03-25T04:40:04;31.43;;;11.20;;
7575;SDS011;3829;50.798;4.358;2024-03-25T04:42:30;26.67;;;11.47;;
7575;SDS011;3829;50.798;4.358;2024-03-25T04:44:55;31.63;;;10.57;;
7575;SDS011;3829;50.798;4.358;2024-03-25T04:47:22;43.17;;;12.10;;
7575;SDS011;3829;50.798;4.358;2024-03-25T04:49:47;38.97;;;11.70;;
7575;SDS011;3829;50.798;4.358;2024-03-25T04:52:13;26.77;;;10.87;;
7575;SDS011;3829;50.798;4.358;2024-03-25T04:54:41;27.93;;;10.40;;
7575;SDS011;3829;50.798;4.358;2024-03-25T04:57:08;28.90;;;12.70;;
7575;SDS011;3829;50.798;4.358;2024-03-25T04:59:33;30.67;;;11.53;;
7575;SDS011;3829;50.798;4.358;2024-03-25T05:01:59;33.43;;;12.90;;
7575;SDS011;3829;50.798;4.358;2024-03-25T05:04:24;34.10;;;11.80;;
7575;SDS011;3829;50.798;4.358;2024-03-25T05:06:50;31.23;;;12.33;;
7575;SDS011;3829;50.798;4.358;2024-03-25T05:09:16;30.43;;;11.00;;
7575;SDS011;3829;50.798;4.358;2024-03-25T05:11:41;28.27;;;11.13;;
7575;SDS011;3829;50.798;4.358;2024-03-25T05:14:07;26.83;;;10.87;;
7575;SDS011;3829;50.798;4.358;2024-03-25T05:16:33;39.13;;;11.10;;
7575;SDS011;3829;50.798;4.358;2024-03-25T05:18:58;32.20;;;10.97;;
7575;SDS011;3829;50.798;4.358;2024-03-25T05:21:24;32.07;;;12.20;;
7575;SDS011;3829;50.798;4.358;2024-03-25T05:23:49;31.40;;;11.97;;
7575;SDS011;3829;50.798;4.358;2024-03-25T05:26:15;42.20;;;12.47;;
7575;SDS011;3829;50.798;4.358;2024-03-25T05:28:40;42.03;;;13.57;;
7575;SDS011;3829;50.798;4.358;2024-03-25T05:31:06;38.87;;;13.03;;
7575;SDS011;3829;50.798;4.358;2024-03-25T05:33:32;39.87;;;12.77;;
7575;SDS011;3829;50.798;4.358;2024-03-25T05:35:59;38.87;;;12.73;;
7575;SDS011;3829;50.798;4.358;2024-03-25T05:38:25;33.57;;;13.17;;
7575;SDS011;3829;50.798;4.358;2024-03-25T05:40:51;46.13;;;13.10;;
7575;SDS011;3829;50.798;4.358;2024-03-25T05:43:16;43.13;;;14.87;;
7575;SDS011;3829;50.798;4.358;2024-03-25T05:45:49;56.23;;;14.07;;
7575;SDS011;3829;50.798;4.358;2024-03-25T05:48:16;51.20;;;14.30;;
7575;SDS011;3829;50.798;4.358;2024-03-25T05:50:41;49.97;;;15.00;;
7575;SDS011;3829;50.798;4.358;2024-03-25T05:53:07;44.13;;;14.87;;
7575;SDS011;3829;50.798;4.358;2024-03-25T05:55:33;46.37;;;13.70;;
7575;SDS011;3829;50.798;4.358;2024-03-25T05:57:58;54.17;;;15.90;;
7575;SDS011;3829;50.798;4.358;2024-03-25T06:00:24;44.27;;;14.93;;
7575;SDS011;3829;50.798;4.358;2024-03-25T06:02:51;48.67;;;14.97;;
7575;SDS011;3829;50.798;4.358;2024-03-25T06:05:18;52.60;;;16.33;;
7575;SDS011;3829;50.798;4.358;2024-03-25T06:07:44;50.53;;;15.07;;
7575;SDS011;3829;50.798;4.358;2024-03-25T06:10:10;51.63;;;14.67;;
7575;SDS011;3829;50.798;4.358;2024-03-25T06:12:35;46.23;;;15.83;;
7575;SDS011;3829;50.798;4.358;2024-03-25T06:15:01;46.40;;;14.93;;
7575;SDS011;3829;50.798;4.358;2024-03-25T06:17:27;36.63;;;14.17;;
7575;SDS011;3829;50.798;4.358;2024-03-25T06:19:52;54.33;;;15.90;;
7575;SDS011;3829;50.798;4.358;2024-03-25T06:22:18;59.03;;;15.83;;
7575;SDS011;3829;50.798;4.358;2024-03-25T06:24:43;45.70;;;14.97;;
7575;SDS011;3829;50.798;4.358;2024-03-25T06:27:09;40.83;;;13.20;;
7575;SDS011;3829;50.798;4.358;2024-03-25T06:29:35;55.40;;;17.83;;
7575;SDS011;3829;50.798;4.358;2024-03-25T06:32:00;43.10;;;14.47;;
7575;SDS011;3829;50.798;4.358;2024-03-25T06:34:36;48.00;;;13.20;;
7575;SDS011;3829;50.798;4.358;2024-03-25T06:37:02;38.57;;;12.07;;
7575;SDS011;3829;50.798;4.358;2024-03-25T06:39:29;35.27;;;12.20;;
7575;SDS011;3829;50.798;4.358;2024-03-25T06:41:54;39.60;;;12.33;;
7575;SDS011;3829;50.798;4.358;2024-03-25T06:44:20;63.23;;;13.37;;
7575;SDS011;3829;50.798;4.358;2024-03-25T06:46:45;34.53;;;12.63;;
7575;SDS011;3829;50.798;4.358;2024-03-25T06:49:11;35.07;;;11.93;;
7575;SDS011;3829;50.798;4.358;2024-03-25T06:51:36;36.63;;;11.80;;
7575;SDS011;3829;50.798;4.358;2024-03-25T06:54:02;42.97;;;11.87;;
7575;SDS011;3829;50.798;4.358;2024-03-25T06:56:27;32.60;;;11.80;;
7575;SDS011;3829;50.798;4.358;2024-03-25T06:58:53;34.47;;;11.13;;
7575;SDS011;3829;50.798;4.358;2024-03-25T07:01:19;37.10;;;10.67;;
7575;SDS011;3829;50.798;4.358;2024-03-25T07:03:44;28.27;;;10.33;;
7575;SDS011;3829;50.798;4.358;2024-03-25T07:06:10;32.43;;;10.83;;
7575;SDS011;3829;50.798;4.358;2024-03-25T07:08:35;33.47;;;11.20;;
7575;SDS011;3829;50.798;4.358;2024-03-25T07:11:01;29.20;;;10.27;;
7575;SDS011;3829;50.798;4.358;2024-03-25T07:13:26;29.70;;;10.93;;
7575;SDS011;3829;50.798;4.358;2024-03-25T07:15:52;24.13;;;10.27;;
7575;SDS011;3829;50.798;4.358;2024-03-25T07:18:18;41.13;;;10.30;;
7575;SDS011;3829;50.798;4.358;2024-03-25T07:20:43;31.00;;;10.60;;
7575;SDS011;3829;50.798;4.358;2024-03-25T07:23:09;37.43;;;11.13;;
7575;SDS011;3829;50.798;4.358;2024-03-25T07:25:35;29.70;;;10.43;;
7575;SDS011;3829;50.798;4.358;2024-03-25T07:28:01;34.47;;;10.77;;
7575;SDS011;3829;50.798;4.358;2024-03-25T07:30:27;38.00;;;9.57;;
7575;SDS011;3829;50.798;4.358;2024-03-25T07:32:54;37.77;;;10.60;;
7575;SDS011;3829;50.798;4.358;2024-03-25T07:35:20;33.67;;;10.37;;
7575;SDS011;3829;50.798;4.358;2024-03-25T07:37:46;40.27;;;11.73;;
7575;SDS011;3829;50.798;4.358;2024-03-25T07:40:11;30.37;;;9.97;;
7575;SDS011;3829;50.798;4.358;2024-03-25T07:42:39;29.63;;;10.83;;
7575;SDS011;3829;50.798;4.358;2024-03-25T07:45:05;34.13;;;9.30;;
7575;SDS011;3829;50.798;4.358;2024-03-25T07:47:31;26.50;;;11.17;;
7575;SDS011;3829;50.798;4.358;2024-03-25T07:49:57;31.03;;;10.63;;
7575;SDS011;3829;50.798;4.358;2024-03-25T07:52:24;20.83;;;9.53;;
7575;SDS011;3829;50.798;4.358;2024-03-25T07:54:50;28.77;;;9.53;;
7575;SDS011;3829;50.798;4.358;2024-03-25T07:57:16;22.87;;;9.03;;
7575;SDS011;3829;50.798;4.358;2024-03-25T07:59:42;22.40;;;8.97;;
7575;SDS011;3829;50.798;4.358;2024-03-25T08:02:07;19.83;;;8.43;;
7575;SDS011;3829;50.798;4.358;2024-03-25T08:04:33;23.07;;;9.47;;
7575;SDS011;3829;50.798;4.358;2024-03-25T08:06:58;26.13;;;9.07;;
7575;SDS011;3829;50.798;4.358;2024-03-25T08:09:24;22.23;;;8.43;;
7575;SDS011;3829;50.798;4.358;2024-03-25T08:11:49;22.97;;;9.33;;
7575;SDS011;3829;50.798;4.358;2024-03-25T08:14:15;21.80;;;8.53;;
7575;SDS011;3829;50.798;4.358;2024-03-25T08:16:40;22.97;;;7.90;;
7575;SDS011;3829;50.798;4.358;2024-03-25T08:19:06;35.00;;;8.67;;
7575;SDS011;3829;50.798;4.358;2024-03-25T08:21:31;19.53;;;8.43;;
7575;SDS011;3829;50.798;4.358;2024-03-25T08:23:57;22.93;;;9.00;;
7575;SDS011;3829;50.798;4.358;2024-03-25T08:26:22;15.40;;;8.57;;
7575;SDS011;3829;50.798;4.358;2024-03-25T08:28:48;22.37;;;8.40;;
7575;SDS011;3829;50.798;4.358;2024-03-25T08:31:14;22.73;;;9.20;;
7575;SDS011;3829;50.798;4.358;2024-03-25T08:33:40;20.83;;;7.90;;
7575;SDS011;3829;50.798;4.358;2024-03-25T08:36:05;25.07;;;9.23;;
7575;SDS011;3829;50.798;4.358;2024-03-25T08:38:31;19.57;;;8.40;;
7575;SDS011;3829;50.798;4.358;2024-03-25T08:40:56;19.13;;;7.93;;
7575;SDS011;3829;50.798;4.358;2024-03-25T08:43:22;23.00;;;7.50;;
7575;SDS011;3829;50.798;4.358;2024-03-25T08:45:48;14.83;;;8.27;;
7575;SDS011;3829;50.798;4.358;2024-03-25T08:48:13;20.40;;;7.40;;
7575;SDS011;3829;50.798;4.358;2024-03-25T08:50:39;18.63;;;8.13;;
7575;SDS011;3829;50.798;4.358;2024-03-25T08:53:04;18.33;;;7.53;;
7575;SDS011;3829;50.798;4.358;2024-03-25T08:55:30;25.27;;;8.63;;
7575;SDS011;3829;50.798;4.358;2024-03-25T08:57:56;17.97;;;9.20;;
7575;SDS011;3829;50.798;4.358;2024-03-25T09:00:24;25.67;;;8.83;;
7575;SDS011;3829;50.798;4.358;2024-03-25T09:02:50;15.90;;;8.67;;
7575;SDS011;3829;50.798;4.358;2024-03-25T09:05:15;25.47;;;7.80;;
7575;SDS011;3829;50.798;4.358;2024-03-25T09:07:43;22.60;;;8.27;;
7575;SDS011;3829;50.798;4.358;2024-03-25T09:10:10;15.83;;;7.40;;
7575;SDS011;3829;50.798;4.358;2024-03-25T09:12:46;14.83;;;7.50;;
7575;SDS011;3829;50.798;4.358;2024-03-25T09:15:11;14.60;;;6.70;;
7575;SDS011;3829;50.798;4.358;2024-03-25T09:17:37;12.17;;;6.77;;
7575;SDS011;3829;50.798;4.358;2024-03-25T09:20:04;17.87;;;7.53;;
7575;SDS011;3829;50.798;4.358;2024-03-25T09:22:33;20.50;;;7.77;;
7575;SDS011;3829;50.798;4.358;2024-03-25T09:24:59;17.23;;;7.67;;
7575;SDS011;3829;50.798;4.358;2024-03-25T09:27:24;25.50;;;8.07;;
7575;SDS011;3829;50.798;4.358;2024-03-25T09:29:50;21.93;;;8.60;;
7575;SDS011;3829;50.798;4.358;2024-03-25T09:32:15;16.37;;;7.80;;
7575;SDS011;3829;50.798;4.358;2024-03-25T09:34:41;19.17;;;8.03;;
7575;SDS011;3829;50.798;4.358;2024-03-25T09:37:07;16.13;;;7.63;;
7575;SDS011;3829;50.798;4.358;2024-03-25T09:39:33;20.93;;;7.47;;
7575;SDS011;3829;50.798;4.358;2024-03-25T09:41:58;14.97;;;6.73;;
7575;SDS011;3829;50.798;4.358;2024-03-25T09:44:31;16.43;;;6.63;;
7575;SDS011;3829;50.798;4.358;2024-03-25T09:46:57;12.70;;;7.03;;
7575;SDS011;3829;50.798;4.358;2024-03-25T09:49:23;16.67;;;7.13;;
7575;SDS011;3829;50.798;4.358;2024-03-25T09:51:50;18.70;;;6.97;;
7575;SDS011;3829;50.798;4.358;2024-03-25T09:54:16;10.67;;;6.47;;
7575;SDS011;3829;50.798;4.358;2024-03-25T09:56:41;12.50;;;6.30;;
7575;SDS011;3829;50.798;4.358;2024-03-25T09:59:07;12.00;;;5.20;;
7575;SDS011;3829;50.798;4.358;2024-03-25T10:01:32;10.40;;;5.30;;
7575;SDS011;3829;50.798;4.358;2024-03-25T10:03:58;10.07;;;4.93;;
7575;SDS011;3829;50.798;4.358;2024-03-25T10:06:26;10.17;;;5.97;;
7575;SDS011;3829;50.798;4.358;2024-03-25T10:08:53;10.97;;;6.57;;
7575;SDS011;3829;50.798;4.358;2024-03-25T10:11:22;13.93;;;5.23;;
7575;SDS011;3829;50.798;4.358;2024-03-25T10:13:47;11.97;;;5.67;;
7575;SDS011;3829;50.798;4.358;2024-03-25T10:16:13;9.70;;;5.60;;
7575;SDS011;3829;50.798;4.358;2024-03-25T10:18:38;6.90;;;4.10;;
7575;SDS011;3829;50.798;4.358;2024-03-25T10:21:05;11.57;;;4.40;;
7575;SDS011;3829;50.798;4.358;2024-03-25T10:23:35;10.23;;;4.90;;
7575;SDS011;3829;50.798;4.358;2024-03-25T10:26:05;12.57;;;5.50;;
7575;SDS011;3829;50.798;4.358;2024-03-25T10:28:31;15.07;;;4.93;;
7575;SDS011;3829;50.798;4.358;2024-03-25T10:31:02;11.40;;;4.23;;
7575;SDS011;3829;50.798;4.358;2024-03-25T10:33:29;11.80;;;4.37;;
7575;SDS011;3829;50.798;4.358;2024-03-25T10:35:54;12.90;;;4.20;;
7575;SDS011;3829;50.798;4.358;2024-03-25T10:38:23;9.63;;;4.63;;
7575;SDS011;3829;50.798;4.358;2024-03-25T10:40:49;9.87;;;4.57;;
7575;SDS011;3829;50.798;4.358;2024-03-25T10:43:17;6.87;;;4.33;;
7575;SDS011;3829;50.798;4.358;2024-03-25T10:45:45;7.33;;;4.33;;
7575;SDS011;3829;50.798;4.358;2024-03-25T10:48:15;8.73;;;3.73;;
7575;SDS011;3829;50.798;4.358;2024-03-25T10:50:52;5.20;;;3.17;;
7575;SDS011;3829;50.798;4.358;2024-03-25T10:53:21;11.77;;;4.20;;
7575;SDS011;3829;50.798;4.358;2024-03-25T10:55:48;8.07;;;3.60;;
7575;SDS011;3829;50.798;4.358;2024-03-25T10:58:19;9.20;;;4.00;;
7575;SDS011;3829;50.798;4.358;2024-03-25T11:00:47;5.23;;;3.00;;
7575;SDS011;3829;50.798;4.358;2024-03-25T11:03:13;14.57;;;4.30;;
7575;SDS011;3829;50.798;4.358;2024-03-25T11:05:39;4.17;;;2.77;;
7575;SDS011;3829;50.798;4.358;2024-03-25T11:08:10;10.97;;;3.73;;
7575;SDS011;3829;50.798;4.358;2024-03-25T11:10:41;5.67;;;3.13;;
7575;SDS011;3829;50.798;4.358;2024-03-25T11:13:13;5.50;;;2.53;;
7575;SDS011;3829;50.798;4.358;2024-03-25T11:15:40;7.37;;;3.00;;
7575;SDS011;3829;50.798;4.358;2024-03-25T11:18:16;5.53;;;3.23;;
7575;SDS011;3829;50.798;4.358;2024-03-25T11:20:43;6.27;;;3.27;;
7575;SDS011;3829;50.798;4.358;2024-03-25T11:23:10;7.37;;;2.93;;
7575;SDS011;3829;50.798;4.358;2024-03-25T11:25:37;6.00;;;3.00;;
7575;SDS011;3829;50.798;4.358;2024-03-25T11:28:03;6.83;;;3.00;;
7575;SDS011;3829;50.798;4.358;2024-03-25T11:30:29;6.00;;;2.47;;
7575;SDS011;3829;50.798;4.358;2024-03-25T11:32:56;6.27;;;3.10;;
7575;SDS011;3829;50.798;4.358;2024-03-25T11:35:24;3.60;;;2.30;;
7575;SDS011;3829;50.798;4.358;2024-03-25T11:37:50;3.27;;;2.27;;
7575;SDS011;3829;50.798;4.358;2024-03-25T11:40:17;7.17;;;2.77;;
7575;SDS011;3829;50.798;4.358;2024-03-25T11:42:43;3.37;;;2.73;;
7575;SDS011;3829;50.798;4.358;2024-03-25T11:45:17;6.50;;;2.93;;
7575;SDS011;3829;50.798;4.358;2024-03-25T11:47:45;8.03;;;2.90;;
7575;SDS011;3829;50.798;4.358;2024-03-25T11:50:12;6.77;;;3.00;;
7575;SDS011;3829;50.798;4.358;2024-03-25T11:52:39;6.23;;;2.97;;
7575;SDS011;3829;50.798;4.358;2024-03-25T11:55:05;3.80;;;2.97;;
7575;SDS011;3829;50.798;4.358;2024-03-25T11:57:33;4.53;;;3.00;;
7575;SDS011;3829;50.798;4.358;2024-03-25T11:59:59;5.83;;;3.23;;
7575;SDS011;3829;50.798;4.358;2024-03-25T12:02:25;3.97;;;2.80;;
7575;SDS011;3829;50.798;4.358;2024-03-25T12:04:51;7.57;;;3.17;;
7575;SDS011;3829;50.798;4.358;2024-03-25T12:07:16;10.07;;;3.20;;
7575;SDS011;3829;50.798;4.358;2024-03-25T12:09:42;5.00;;;2.67;;
7575;SDS011;3829;50.798;4.358;2024-03-25T12:12:18;6.83;;;2.77;;
7575;SDS011;3829;50.798;4.358;2024-03-25T12:14:43;3.37;;;2.37;;
7575;SDS011;3829;50.798;4.358;2024-03-25T12:17:09;5.37;;;2.43;;
7575;SDS011;3829;50.798;4.358;2024-03-25T12:19:34;5.30;;;2.23;;
7575;SDS011;3829;50.798;4.358;2024-03-25T12:22:00;5.87;;;2.40;;
7575;SDS011;3829;50.798;4.358;2024-03-25T12:24:26;5.40;;;2.53;;
7575;SDS011;3829;50.798;4.358;2024-03-25T12:26:52;4.40;;;2.17;;
7575;SDS011;3829;50.798;4.358;2024-03-25T12:29:17;3.20;;;2.13;;
7575;SDS011;3829;50.798;4.358;2024-03-25T12:31:43;3.33;;;2.27;;
7575;SDS011;3829;50.798;4.358;2024-03-25T12:34:18;2.43;;;2.00;;
7575;SDS011;3829;50.798;4.358;2024-03-25T12:36:44;4.20;;;1.50;;
7575;SDS011;3829;50.798;4.358;2024-03-25T12:39:14;3.47;;;1.63;;
7575;SDS011;3829;50.798;4.358;2024-03-25T12:41:41;3.90;;;1.87;;
7575;SDS011;3829;50.798;4.358;2024-03-25T12:44:07;3.90;;;1.70;;
7575;SDS011;3829;50.798;4.358;2024-03-25T12:46:32;6.07;;;2.10;;
7575;SDS011;3829;50.798;4.358;2024-03-25T12:48:58;2.90;;;1.93;;
7575;SDS011;3829;50.798;4.358;2024-03-25T12:51:23;6.50;;;2.63;;
7575;SDS011;3829;50.798;4.358;2024-03-25T12:53:49;5.47;;;1.90;;
7575;SDS011;3829;50.798;4.358;2024-03-25T12:56:15;5.17;;;2.43;;
7575;SDS011;3829;50.798;4.358;2024-03-25T12:58:41;2.47;;;1.70;;
7575;SDS011;3829;50.798;4.358;2024-03-25T13:01:06;4.63;;;2.00;;
7575;SDS011;3829;50.798;4.358;2024-03-25T13:03:32;2.17;;;1.90;;
7575;SDS011;3829;50.798;4.358;2024-03-25T13:05:58;3.33;;;1.73;;
7575;SDS011;3829;50.798;4.358;2024-03-25T13:08:24;6.53;;;2.10;;
7575;SDS011;3829;50.798;4.358;2024-03-25T13:10:50;2.03;;;1.60;;
7575;SDS011;3829;50.798;4.358;2024-03-25T13:13:15;5.17;;;2.67;;
7575;SDS011;3829;50.798;4.358;2024-03-25T13:15:41;2.77;;;1.97;;
7575;SDS011;3829;50.798;4.358;2024-03-25T13:18:08;2.33;;;1.73;;
7575;SDS011;3829;50.798;4.358;2024-03-25T13:20:34;3.40;;;1.60;;
7575;SDS011;3829;50.798;4.358;2024-03-25T13:22:59;3.10;;;1.50;;
7575;SDS011;3829;50.798;4.358;2024-03-25T13:25:25;2.07;;;1.60;;
7575;SDS011;3829;50.798;4.358;2024-03-25T13:27:52;3.03;;;2.00;;
7575;SDS011;3829;50.798;4.358;2024-03-25T13:30:18;5.20;;;1.63;;
7575;SDS011;3829;50.798;4.358;2024-03-25T13:35:29;3.27;;;1.80;;
7575;SDS011;3829;50.798;4.358;2024-03-25T13:37:55;3.97;;;1.77;;
7575;SDS011;3829;50.798;4.358;2024-03-25T13:40:21;4.23;;;2.03;;
7575;SDS011;3829;50.798;4.358;2024-03-25T13:42:46;6.33;;;2.23;;
7575;SDS011;3829;50.798;4.358;2024-03-25T13:45:12;2.60;;;1.77;;
7575;SDS011;3829;50.798;4.358;2024-03-25T13:47:38;2.53;;;2.10;;
7575;SDS011;3829;50.798;4.358;2024-03-25T13:50:04;3.60;;;1.90;;
7575;SDS011;3829;50.798;4.358;2024-03-25T13:52:34;2.07;;;1.60;;
7575;SDS011;3829;50.798;4.358;2024-03-25T13:55:00;3.50;;;1.90;;
7575;SDS011;3829;50.798;4.358;2024-03-25T13:57:26;5.23;;;2.17;;
7575;SDS011;3829;50.798;4.358;2024-03-25T13:59:51;4.70;;;3.27;;
7575;SDS011;3829;50.798;4.358;2024-03-25T14:02:17;4.53;;;1.93;;
7575;SDS011;3829;50.798;4.358;2024-03-25T14:04:43;2.83;;;1.67;;
7575;SDS011;3829;50.798;4.358;2024-03-25T14:07:08;4.63;;;2.30;;
7575;SDS011;3829;50.798;4.358;2024-03-25T14:09:34;2.77;;;2.13;;
7575;SDS011;3829;50.798;4.358;2024-03-25T14:11:59;3.97;;;1.87;;
7575;SDS011;3829;50.798;4.358;2024-03-25T14:14:25;3.30;;;2.03;;
7575;SDS011;3829;50.798;4.358;2024-03-25T14:16:50;2.23;;;1.70;;
7575;SDS011;3829;50.798;4.358;2024-03-25T14:19:17;5.03;;;2.20;;
7575;SDS011;3829;50.798;4.358;2024-03-25T14:21:42;3.43;;;2.03;;
7575;SDS011;3829;50.798;4.358;2024-03-25T14:24:08;4.10;;;1.80;;
7575;SDS011;3829;50.798;4.358;2024-03-25T14:26:34;1.77;;;1.67;;
7575;SDS011;3829;50.798;4.358;2024-03-25T14:28:59;5.07;;;2.00;;
7575;SDS011;3829;50.798;4.358;2024-03-25T14:31:25;1.77;;;1.57;;
7575;SDS011;3829;50.798;4.358;2024-03-25T14:33:53;2.77;;;2.07;;
7575;SDS011;3829;50.798;4.358;2024-03-25T14:36:18;3.20;;;2.17;;
7575;SDS011;3829;50.798;4.358;2024-03-25T14:38:44;2.87;;;1.73;;
7575;SDS011;3829;50.798;4.358;2024-03-25T14:41:11;2.93;;;2.40;;
7575;SDS011;3829;50.798;4.358;2024-03-25T14:43:37;3.40;;;1.43;;
7575;SDS011;3829;50.798;4.358;2024-03-25T14:46:03;3.23;;;1.80;;
7575;SDS011;3829;50.798;4.358;2024-03-25T14:48:29;3.23;;;2.20;;
7575;SDS011;3829;50.798;4.358;2024-03-25T14:50:55;2.63;;;2.00;;
7575;SDS011;3829;50.798;4.358;2024-03-25T14:53:20;2.43;;;1.70;;
7575;SDS011;3829;50.798;4.358;2024-03-25T14:55:46;3.00;;;2.13;;
7575;SDS011;3829;50.798;4.358;2024-03-25T14:58:11;1.63;;;1.53;;